sensor_id;sensor_type;location;lat;lon;timestamp;P1;durP1;ratioP1;P2;durP2;ratioP2
14268;SDS011;7218;51.480;7.006;2024-01-15T00:00:51;38.13;;;19.95;;
14268;SDS011;7218;51.480;7.006;2024-01-15T00:03:18;42.63;;;23.15;;
14268;SDS011;7218;51.480;7.006;2024-01-15T00:05:44;43.25;;;22.50;;
14268;SDS011;7218;51.480;7.006;2024-01-15T00:08:11;39.83;;;21.50;;
14268;SDS011;7218;51.480;7.006;2024-01-15T00:10:37;43.20;;;22.17;;
14268;SDS011;7218;51.480;7.006;2024-01-15T00:13:06;40.67;;;22.27;;
14268;SDS011;7218;51.480;7.006;2024-01-15T00:15:33;41.00;;;21.92;;
14268;SDS011;7218;51.480;7.006;2024-01-15T00:17:59;38.40;;;21.02;;
14268;SDS011;7218;51.480;7.006;2024-01-15T00:20:26;34.13;;;19.60;;
14268;SDS011;7218;51.480;7.006;2024-01-15T00:22:52;35.47;;;21.13;;
14268;SDS011;7218;51.480;7.006;2024-01-15T00:25:19;35.78;;;21.45;;
14268;SDS011;7218;51.480;7.006;2024-01-15T00:27:45;37.78;;;20.85;;
14268;SDS011;7218;51.480;7.006;2024-01-15T00:30:14;35.58;;;20.33;;
14268;SDS011;7218;51.480;7.006;2024-01-15T00:32:40;36.15;;;20.45;;
14268;SDS011;7218;51.480;7.006;2024-01-15T00:35:07;34.83;;;20.00;;
14268;SDS011;7218;51.480;7.006;2024-01-15T00:37:34;34.53;;;20.15;;
14268;SDS011;7218;51.480;7.006;2024-01-15T00:40:00;32.42;;;19.27;;
14268;SDS011;7218;51.480;7.006;2024-01-15T00:42:27;34.55;;;19.63;;
14268;SDS011;7218;51.480;7.006;2024-01-15T00:44:53;30.67;;;18.75;;
14268;SDS011;7218;51.480;7.006;2024-01-15T00:47:21;33.83;;;19.02;;
14268;SDS011;7218;51.480;7.006;2024-01-15T00:49:48;32.80;;;19.48;;
14268;SDS011;7218;51.480;7.006;2024-01-15T00:52:14;33.45;;;19.75;;
14268;SDS011;7218;51.480;7.006;2024-01-15T00:54:41;34.08;;;19.52;;
14268;SDS011;7218;51.480;7.006;2024-01-15T00:57:07;31.88;;;18.65;;
14268;SDS011;7218;51.480;7.006;2024-01-15T00:59:34;30.20;;;17.67;;
14268;SDS011;7218;51.480;7.006;2024-01-15T01:02:00;30.38;;;16.63;;
14268;SDS011;7218;51.480;7.006;2024-01-15T01:04:28;29.98;;;17.73;;
14268;SDS011;7218;51.480;7.006;2024-01-15T01:06:55;30.40;;;17.80;;
14268;SDS011;7218;51.480;7.006;2024-01-15T01:09:21;27.73;;;14.93;;
14268;SDS011;7218;51.480;7.006;2024-01-15T01:11:48;30.27;;;18.02;;
14268;SDS011;7218;51.480;7.006;2024-01-15T01:14:14;33.08;;;17.40;;
14268;SDS011;7218;51.480;7.006;2024-01-15T01:16:41;28.20;;;17.52;;
14268;SDS011;7218;51.480;7.006;2024-01-15T01:19:07;29.02;;;17.08;;
14268;SDS011;7218;51.480;7.006;2024-01-15T01:21:35;27.60;;;16.58;;
14268;SDS011;7218;51.480;7.006;2024-01-15T01:24:01;28.65;;;16.83;;
14268;SDS011;7218;51.480;7.006;2024-01-15T01:26:28;30.42;;;17.98;;
14268;SDS011;7218;51.480;7.006;2024-01-15T01:28:55;30.75;;;17.60;;
14268;SDS011;7218;51.480;7.006;2024-01-15T01:31:21;29.88;;;17.48;;
14268;SDS011;7218;51.480;7.006;2024-01-15T01:33:49;30.17;;;17.98;;
14268;SDS011;7218;51.480;7.006;2024-01-15T01:36:16;28.70;;;17.20;;
14268;SDS011;7218;51.480;7.006;2024-01-15T01:38:44;29.38;;;16.90;;
14268;SDS011;7218;51.480;7.006;2024-01-15T01:41:10;30.52;;;17.85;;
14268;SDS011;7218;51.480;7.006;2024-01-15T01:43:37;28.45;;;17.63;;
14268;SDS011;7218;51.480;7.006;2024-01-15T01:46:03;29.70;;;17.67;;
14268;SDS011;7218;51.480;7.006;2024-01-15T01:48:31;29.38;;;17.95;;
14268;SDS011;7218;51.480;7.006;2024-01-15T01:50:59;27.42;;;17.77;;
14268;SDS011;7218;51.480;7.006;2024-01-15T01:53:28;27.23;;;16.98;;
14268;SDS011;7218;51.480;7.006;2024-01-15T01:55:58;26.92;;;18.20;;
14268;SDS011;7218;51.480;7.006;2024-01-15T01:58:24;29.55;;;18.23;;
14268;SDS011;7218;51.480;7.006;2024-01-15T02:00:52;29.63;;;17.25;;
14268;SDS011;7218;51.480;7.006;2024-01-15T02:03:19;27.70;;;16.13;;
14268;SDS011;7218;51.480;7.006;2024-01-15T02:05:47;27.63;;;16.60;;
14268;SDS011;7218;51.480;7.006;2024-01-15T02:08:14;29.90;;;17.65;;
14268;SDS011;7218;51.480;7.006;2024-01-15T02:10:41;26.20;;;16.48;;
14268;SDS011;7218;51.480;7.006;2024-01-15T02:13:09;26.98;;;15.75;;
14268;SDS011;7218;51.480;7.006;2024-01-15T02:15:35;28.40;;;16.23;;
14268;SDS011;7218;51.480;7.006;2024-01-15T02:18:03;28.60;;;17.45;;
14268;SDS011;7218;51.480;7.006;2024-01-15T02:20:32;30.85;;;16.50;;
14268;SDS011;7218;51.480;7.006;2024-01-15T02:23:06;32.25;;;16.95;;
14268;SDS011;7218;51.480;7.006;2024-01-15T02:25:35;28.77;;;16.25;;
14268;SDS011;7218;51.480;7.006;2024-01-15T02:28:03;26.58;;;16.15;;
14268;SDS011;7218;51.480;7.006;2024-01-15T02:30:30;26.40;;;16.25;;
14268;SDS011;7218;51.480;7.006;2024-01-15T02:32:57;22.33;;;14.65;;
14268;SDS011;7218;51.480;7.006;2024-01-15T02:35:24;25.13;;;14.32;;
14268;SDS011;7218;51.480;7.006;2024-01-15T02:37:50;30.17;;;16.05;;
14268;SDS011;7218;51.480;7.006;2024-01-15T02:40:18;27.35;;;15.70;;
14268;SDS011;7218;51.480;7.006;2024-01-15T02:42:45;26.83;;;14.88;;
14268;SDS011;7218;51.480;7.006;2024-01-15T02:45:11;24.80;;;14.70;;
14268;SDS011;7218;51.480;7.006;2024-01-15T02:47:38;25.65;;;14.32;;
14268;SDS011;7218;51.480;7.006;2024-01-15T02:50:04;24.60;;;14.40;;
14268;SDS011;7218;51.480;7.006;2024-01-15T02:52:32;24.55;;;13.13;;
14268;SDS011;7218;51.480;7.006;2024-01-15T02:54:58;23.38;;;13.15;;
14268;SDS011;7218;51.480;7.006;2024-01-15T02:57:26;23.65;;;13.20;;
14268;SDS011;7218;51.480;7.006;2024-01-15T02:59:52;26.38;;;13.55;;
14268;SDS011;7218;51.480;7.006;2024-01-15T03:02:19;23.27;;;12.40;;
14268;SDS011;7218;51.480;7.006;2024-01-15T03:04:45;25.67;;;13.07;;
14268;SDS011;7218;51.480;7.006;2024-01-15T03:07:12;22.77;;;12.50;;
14268;SDS011;7218;51.480;7.006;2024-01-15T03:09:39;23.65;;;12.98;;
14268;SDS011;7218;51.480;7.006;2024-01-15T03:12:05;20.15;;;12.23;;
14268;SDS011;7218;51.480;7.006;2024-01-15T03:14:34;19.98;;;11.63;;
14268;SDS011;7218;51.480;7.006;2024-01-15T03:17:01;22.58;;;11.70;;
14268;SDS011;7218;51.480;7.006;2024-01-15T03:19:28;20.48;;;11.50;;
14268;SDS011;7218;51.480;7.006;2024-01-15T03:21:55;21.27;;;11.63;;
14268;SDS011;7218;51.480;7.006;2024-01-15T03:24:22;18.40;;;10.63;;
14268;SDS011;7218;51.480;7.006;2024-01-15T03:26:48;17.75;;;9.80;;
14268;SDS011;7218;51.480;7.006;2024-01-15T03:29:15;18.35;;;10.55;;
14268;SDS011;7218;51.480;7.006;2024-01-15T03:31:42;19.95;;;10.20;;
14268;SDS011;7218;51.480;7.006;2024-01-15T03:34:09;17.60;;;9.63;;
14268;SDS011;7218;51.480;7.006;2024-01-15T03:36:38;16.52;;;9.52;;
14268;SDS011;7218;51.480;7.006;2024-01-15T03:39:05;14.77;;;9.95;;
14268;SDS011;7218;51.480;7.006;2024-01-15T03:41:32;13.32;;;9.23;;
14268;SDS011;7218;51.480;7.006;2024-01-15T03:43:59;16.98;;;9.57;;
14268;SDS011;7218;51.480;7.006;2024-01-15T03:46:26;17.42;;;9.60;;
14268;SDS011;7218;51.480;7.006;2024-01-15T03:48:54;15.05;;;9.38;;
14268;SDS011;7218;51.480;7.006;2024-01-15T03:51:20;17.15;;;9.25;;
14268;SDS011;7218;51.480;7.006;2024-01-15T03:53:47;17.67;;;9.23;;
14268;SDS011;7218;51.480;7.006;2024-01-15T03:56:13;13.82;;;8.82;;
14268;SDS011;7218;51.480;7.006;2024-01-15T03:58:40;14.10;;;9.07;;
14268;SDS011;7218;51.480;7.006;2024-01-15T04:01:07;15.43;;;9.75;;
14268;SDS011;7218;51.480;7.006;2024-01-15T04:03:34;15.65;;;8.85;;
14268;SDS011;7218;51.480;7.006;2024-01-15T04:06:03;16.30;;;7.88;;
14268;SDS011;7218;51.480;7.006;2024-01-15T04:08:30;18.88;;;9.38;;
14268;SDS011;7218;51.480;7.006;2024-01-15T04:10:56;15.35;;;9.57;;
14268;SDS011;7218;51.480;7.006;2024-01-15T04:13:23;13.73;;;9.23;;
14268;SDS011;7218;51.480;7.006;2024-01-15T04:15:49;13.93;;;8.80;;
14268;SDS011;7218;51.480;7.006;2024-01-15T04:18:16;14.38;;;9.68;;
14268;SDS011;7218;51.480;7.006;2024-01-15T04:20:43;17.17;;;9.75;;
14268;SDS011;7218;51.480;7.006;2024-01-15T04:23:11;19.70;;;9.80;;
14268;SDS011;7218;51.480;7.006;2024-01-15T04:25:37;16.83;;;10.77;;
14268;SDS011;7218;51.480;7.006;2024-01-15T04:28:07;18.13;;;10.88;;
14268;SDS011;7218;51.480;7.006;2024-01-15T04:30:34;18.10;;;11.60;;
14268;SDS011;7218;51.480;7.006;2024-01-15T04:33:00;16.92;;;11.10;;
14268;SDS011;7218;51.480;7.006;2024-01-15T04:35:27;19.00;;;11.48;;
14268;SDS011;7218;51.480;7.006;2024-01-15T04:37:53;19.27;;;11.88;;
14268;SDS011;7218;51.480;7.006;2024-01-15T04:40:21;22.02;;;12.93;;
14268;SDS011;7218;51.480;7.006;2024-01-15T04:42:47;22.55;;;13.15;;
14268;SDS011;7218;51.480;7.006;2024-01-15T04:45:14;20.60;;;12.85;;
14268;SDS011;7218;51.480;7.006;2024-01-15T04:47:40;22.80;;;12.85;;
14268;SDS011;7218;51.480;7.006;2024-01-15T04:50:07;23.02;;;13.15;;
14268;SDS011;7218;51.480;7.006;2024-01-15T04:52:34;19.17;;;12.57;;
14268;SDS011;7218;51.480;7.006;2024-01-15T04:55:01;18.95;;;12.20;;
14268;SDS011;7218;51.480;7.006;2024-01-15T04:57:28;17.83;;;12.50;;
14268;SDS011;7218;51.480;7.006;2024-01-15T04:59:55;21.67;;;12.10;;
14268;SDS011;7218;51.480;7.006;2024-01-15T05:02:22;19.40;;;11.88;;
14268;SDS011;7218;51.480;7.006;2024-01-15T05:04:49;19.33;;;12.10;;
14268;SDS011;7218;51.480;7.006;2024-01-15T05:07:16;15.80;;;10.38;;
14268;SDS011;7218;51.480;7.006;2024-01-15T05:09:48;15.35;;;10.60;;
14268;SDS011;7218;51.480;7.006;2024-01-15T05:12:14;19.40;;;10.55;;
14268;SDS011;7218;51.480;7.006;2024-01-15T05:14:42;16.23;;;10.68;;
14268;SDS011;7218;51.480;7.006;2024-01-15T05:17:09;19.33;;;10.82;;
14268;SDS011;7218;51.480;7.006;2024-01-15T05:19:37;14.88;;;10.43;;
14268;SDS011;7218;51.480;7.006;2024-01-15T05:22:04;13.85;;;9.43;;
14268;SDS011;7218;51.480;7.006;2024-01-15T05:24:30;15.38;;;10.25;;
14268;SDS011;7218;51.480;7.006;2024-01-15T05:26:57;15.57;;;10.73;;
14268;SDS011;7218;51.480;7.006;2024-01-15T05:29:23;16.00;;;10.73;;
14268;SDS011;7218;51.480;7.006;2024-01-15T05:31:51;18.08;;;10.43;;
14268;SDS011;7218;51.480;7.006;2024-01-15T05:34:17;18.65;;;10.32;;
14268;SDS011;7218;51.480;7.006;2024-01-15T05:36:44;17.67;;;10.77;;
14268;SDS011;7218;51.480;7.006;2024-01-15T05:39:12;15.68;;;10.63;;
14268;SDS011;7218;51.480;7.006;2024-01-15T05:41:39;14.13;;;9.95;;
14268;SDS011;7218;51.480;7.006;2024-01-15T05:44:05;19.40;;;10.98;;
14268;SDS011;7218;51.480;7.006;2024-01-15T05:46:32;15.38;;;9.88;;
14268;SDS011;7218;51.480;7.006;2024-01-15T05:49:00;17.15;;;10.18;;
14268;SDS011;7218;51.480;7.006;2024-01-15T05:51:26;15.40;;;10.23;;
14268;SDS011;7218;51.480;7.006;2024-01-15T05:53:53;16.30;;;9.82;;
14268;SDS011;7218;51.480;7.006;2024-01-15T05:56:19;16.35;;;9.15;;
14268;SDS011;7218;51.480;7.006;2024-01-15T05:58:46;14.30;;;9.77;;
14268;SDS011;7218;51.480;7.006;2024-01-15T06:01:13;11.95;;;8.70;;
14268;SDS011;7218;51.480;7.006;2024-01-15T06:03:39;16.88;;;9.00;;
14268;SDS011;7218;51.480;7.006;2024-01-15T06:06:08;15.55;;;9.35;;
14268;SDS011;7218;51.480;7.006;2024-01-15T06:08:34;14.02;;;9.15;;
14268;SDS011;7218;51.480;7.006;2024-01-15T06:11:01;17.90;;;9.57;;
14268;SDS011;7218;51.480;7.006;2024-01-15T06:13:28;17.55;;;8.55;;
14268;SDS011;7218;51.480;7.006;2024-01-15T06:15:57;13.18;;;8.35;;
14268;SDS011;7218;51.480;7.006;2024-01-15T06:18:24;15.75;;;8.88;;
14268;SDS011;7218;51.480;7.006;2024-01-15T06:20:52;16.80;;;8.80;;
14268;SDS011;7218;51.480;7.006;2024-01-15T06:23:20;15.25;;;8.48;;
14268;SDS011;7218;51.480;7.006;2024-01-15T06:25:47;15.70;;;8.80;;
14268;SDS011;7218;51.480;7.006;2024-01-15T06:28:13;15.25;;;9.38;;
14268;SDS011;7218;51.480;7.006;2024-01-15T06:30:40;15.63;;;9.02;;
14268;SDS011;7218;51.480;7.006;2024-01-15T06:33:07;14.98;;;9.50;;
14268;SDS011;7218;51.480;7.006;2024-01-15T06:35:33;15.68;;;8.73;;
14268;SDS011;7218;51.480;7.006;2024-01-15T06:38:00;16.25;;;9.75;;
14268;SDS011;7218;51.480;7.006;2024-01-15T06:40:28;10.30;;;8.38;;
14268;SDS011;7218;51.480;7.006;2024-01-15T06:42:54;15.02;;;8.50;;
14268;SDS011;7218;51.480;7.006;2024-01-15T06:45:21;11.07;;;7.68;;
14268;SDS011;7218;51.480;7.006;2024-01-15T06:47:47;12.88;;;8.10;;
14268;SDS011;7218;51.480;7.006;2024-01-15T06:50:14;14.18;;;7.78;;
14268;SDS011;7218;51.480;7.006;2024-01-15T06:52:40;18.58;;;8.40;;
14268;SDS011;7218;51.480;7.006;2024-01-15T06:55:07;11.48;;;6.97;;
14268;SDS011;7218;51.480;7.006;2024-01-15T06:57:35;10.65;;;6.60;;
14268;SDS011;7218;51.480;7.006;2024-01-15T07:00:01;9.40;;;6.22;;
14268;SDS011;7218;51.480;7.006;2024-01-15T07:02:32;10.32;;;6.53;;
14268;SDS011;7218;51.480;7.006;2024-01-15T07:04:59;9.00;;;5.47;;
14268;SDS011;7218;51.480;7.006;2024-01-15T07:07:25;10.82;;;5.85;;
14268;SDS011;7218;51.480;7.006;2024-01-15T07:09:54;10.55;;;6.15;;
14268;SDS011;7218;51.480;7.006;2024-01-15T07:12:21;11.13;;;5.72;;
14268;SDS011;7218;51.480;7.006;2024-01-15T07:14:49;7.03;;;5.35;;
14268;SDS011;7218;51.480;7.006;2024-01-15T07:17:16;9.10;;;5.55;;
14268;SDS011;7218;51.480;7.006;2024-01-15T07:19:42;9.23;;;5.32;;
14268;SDS011;7218;51.480;7.006;2024-01-15T07:22:08;8.77;;;5.25;;
14268;SDS011;7218;51.480;7.006;2024-01-15T07:24:35;8.55;;;4.68;;
14268;SDS011;7218;51.480;7.006;2024-01-15T07:27:01;5.10;;;4.32;;
14268;SDS011;7218;51.480;7.006;2024-01-15T07:29:29;6.60;;;4.30;;
14268;SDS011;7218;51.480;7.006;2024-01-15T07:31:59;5.07;;;4.22;;
14268;SDS011;7218;51.480;7.006;2024-01-15T07:34:25;7.35;;;4.30;;
14268;SDS011;7218;51.480;7.006;2024-01-15T07:36:52;7.22;;;5.00;;
14268;SDS011;7218;51.480;7.006;2024-01-15T07:39:18;7.65;;;5.03;;
14268;SDS011;7218;51.480;7.006;2024-01-15T07:41:45;5.60;;;4.70;;
14268;SDS011;7218;51.480;7.006;2024-01-15T07:44:12;5.72;;;4.30;;
14268;SDS011;7218;51.480;7.006;2024-01-15T07:46:38;5.70;;;3.83;;
14268;SDS011;7218;51.480;7.006;2024-01-15T07:49:07;5.95;;;3.80;;
14268;SDS011;7218;51.480;7.006;2024-01-15T07:51:34;6.30;;;3.92;;
14268;SDS011;7218;51.480;7.006;2024-01-15T07:54:00;6.30;;;4.15;;
14268;SDS011;7218;51.480;7.006;2024-01-15T07:56:27;7.78;;;4.43;;
14268;SDS011;7218;51.480;7.006;2024-01-15T07:58:54;6.03;;;3.92;;
14268;SDS011;7218;51.480;7.006;2024-01-15T08:01:20;6.72;;;4.53;;
14268;SDS011;7218;51.480;7.006;2024-01-15T08:03:46;6.50;;;4.50;;
14268;SDS011;7218;51.480;7.006;2024-01-15T08:06:14;9.45;;;4.50;;
14268;SDS011;7218;51.480;7.006;2024-01-15T08:08:41;6.03;;;4.90;;
14268;SDS011;7218;51.480;7.006;2024-01-15T08:11:08;8.60;;;5.72;;
14268;SDS011;7218;51.480;7.006;2024-01-15T08:13:34;7.63;;;6.65;;
14268;SDS011;7218;51.480;7.006;2024-01-15T08:16:01;10.80;;;6.60;;
14268;SDS011;7218;51.480;7.006;2024-01-15T08:18:28;10.05;;;7.30;;
14268;SDS011;7218;51.480;7.006;2024-01-15T08:20:54;11.68;;;8.65;;
14268;SDS011;7218;51.480;7.006;2024-01-15T08:23:22;11.10;;;8.10;;
14268;SDS011;7218;51.480;7.006;2024-01-15T08:25:49;11.60;;;8.68;;
14268;SDS011;7218;51.480;7.006;2024-01-15T08:28:17;11.65;;;9.05;;
14268;SDS011;7218;51.480;7.006;2024-01-15T08:30:44;12.80;;;9.35;;
14268;SDS011;7218;51.480;7.006;2024-01-15T08:33:11;12.57;;;10.10;;
14268;SDS011;7218;51.480;7.006;2024-01-15T08:35:38;11.13;;;10.00;;
14268;SDS011;7218;51.480;7.006;2024-01-15T08:38:06;10.93;;;9.52;;
14268;SDS011;7218;51.480;7.006;2024-01-15T08:40:37;12.48;;;9.95;;
14268;SDS011;7218;51.480;7.006;2024-01-15T08:43:03;14.50;;;10.55;;
14268;SDS011;7218;51.480;7.006;2024-01-15T08:45:31;13.55;;;10.95;;
14268;SDS011;7218;51.480;7.006;2024-01-15T08:47:58;14.02;;;11.88;;
14268;SDS011;7218;51.480;7.006;2024-01-15T08:50:26;15.05;;;12.40;;
14268;SDS011;7218;51.480;7.006;2024-01-15T08:52:52;15.18;;;13.57;;
14268;SDS011;7218;51.480;7.006;2024-01-15T08:55:19;17.17;;;13.32;;
14268;SDS011;7218;51.480;7.006;2024-01-15T08:57:48;16.65;;;13.02;;
14268;SDS011;7218;51.480;7.006;2024-01-15T09:00:15;13.88;;;11.70;;
14268;SDS011;7218;51.480;7.006;2024-01-15T09:02:42;14.32;;;12.57;;
14268;SDS011;7218;51.480;7.006;2024-01-15T09:05:10;14.95;;;11.88;;
14268;SDS011;7218;51.480;7.006;2024-01-15T09:07:37;17.63;;;11.98;;
14268;SDS011;7218;51.480;7.006;2024-01-15T09:10:03;15.48;;;13.15;;
14268;SDS011;7218;51.480;7.006;2024-01-15T09:12:31;16.45;;;13.00;;
14268;SDS011;7218;51.480;7.006;2024-01-15T09:14:59;15.45;;;12.52;;
14268;SDS011;7218;51.480;7.006;2024-01-15T09:17:29;14.82;;;12.65;;
14268;SDS011;7218;51.480;7.006;2024-01-15T09:19:55;13.05;;;9.70;;
14268;SDS011;7218;51.480;7.006;2024-01-15T09:22:22;13.25;;;10.70;;
14268;SDS011;7218;51.480;7.006;2024-01-15T09:24:48;13.95;;;10.25;;
14268;SDS011;7218;51.480;7.006;2024-01-15T09:27:15;13.52;;;10.77;;
14268;SDS011;7218;51.480;7.006;2024-01-15T09:29:42;15.40;;;10.32;;
14268;SDS011;7218;51.480;7.006;2024-01-15T09:32:12;12.13;;;10.80;;
14268;SDS011;7218;51.480;7.006;2024-01-15T09:34:39;12.57;;;10.40;;
14268;SDS011;7218;51.480;7.006;2024-01-15T09:37:07;12.95;;;10.43;;
14268;SDS011;7218;51.480;7.006;2024-01-15T09:39:33;12.18;;;10.50;;
14268;SDS011;7218;51.480;7.006;2024-01-15T09:42:00;13.75;;;10.45;;
14268;SDS011;7218;51.480;7.006;2024-01-15T09:44:28;12.93;;;9.55;;
14268;SDS011;7218;51.480;7.006;2024-01-15T09:46:55;10.93;;;8.60;;
14268;SDS011;7218;51.480;7.006;2024-01-15T09:49:24;10.45;;;8.25;;
14268;SDS011;7218;51.480;7.006;2024-01-15T09:51:51;11.45;;;9.25;;
14268;SDS011;7218;51.480;7.006;2024-01-15T09:54:17;11.73;;;9.27;;
14268;SDS011;7218;51.480;7.006;2024-01-15T09:56:45;12.57;;;9.68;;
14268;SDS011;7218;51.480;7.006;2024-01-15T09:59:11;12.00;;;9.82;;
14268;SDS011;7218;51.480;7.006;2024-01-15T10:01:40;11.98;;;9.80;;
14268;SDS011;7218;51.480;7.006;2024-01-15T10:04:08;11.60;;;9.60;;
14268;SDS011;7218;51.480;7.006;2024-01-15T10:06:36;10.82;;;9.20;;
14268;SDS011;7218;51.480;7.006;2024-01-15T10:09:04;11.48;;;9.15;;
14268;SDS011;7218;51.480;7.006;2024-01-15T10:11:32;11.00;;;9.32;;
14268;SDS011;7218;51.480;7.006;2024-01-15T10:13:59;10.10;;;8.73;;
14268;SDS011;7218;51.480;7.006;2024-01-15T10:16:26;9.65;;;8.05;;
14268;SDS011;7218;51.480;7.006;2024-01-15T10:18:52;8.85;;;7.95;;
14268;SDS011;7218;51.480;7.006;2024-01-15T10:21:19;9.05;;;8.10;;
14268;SDS011;7218;51.480;7.006;2024-01-15T10:23:47;10.48;;;8.05;;
14268;SDS011;7218;51.480;7.006;2024-01-15T10:26:14;10.45;;;8.07;;
14268;SDS011;7218;51.480;7.006;2024-01-15T10:28:40;9.00;;;8.10;;
14268;SDS011;7218;51.480;7.006;2024-01-15T10:31:07;11.00;;;8.50;;
14268;SDS011;7218;51.480;7.006;2024-01-15T10:33:35;14.38;;;8.32;;
14268;SDS011;7218;51.480;7.006;2024-01-15T10:36:01;10.88;;;8.45;;
14268;SDS011;7218;51.480;7.006;2024-01-15T10:38:28;11.90;;;7.93;;
14268;SDS011;7218;51.480;7.006;2024-01-15T10:40:56;13.57;;;7.50;;
14268;SDS011;7218;51.480;7.006;2024-01-15T10:43:23;9.38;;;7.40;;
14268;SDS011;7218;51.480;7.006;2024-01-15T10:45:50;10.00;;;7.78;;
14268;SDS011;7218;51.480;7.006;2024-01-15T10:48:17;8.38;;;7.03;;
14268;SDS011;7218;51.480;7.006;2024-01-15T10:50:45;8.38;;;6.95;;
14268;SDS011;7218;51.480;7.006;2024-01-15T10:53:13;7.43;;;6.30;;
14268;SDS011;7218;51.480;7.006;2024-01-15T10:55:41;7.38;;;6.30;;
14268;SDS011;7218;51.480;7.006;2024-01-15T10:58:10;6.93;;;5.82;;
14268;SDS011;7218;51.480;7.006;2024-01-15T11:00:36;9.07;;;7.00;;
14268;SDS011;7218;51.480;7.006;2024-01-15T11:03:04;9.40;;;6.85;;
14268;SDS011;7218;51.480;7.006;2024-01-15T11:05:33;11.25;;;6.30;;
14268;SDS011;7218;51.480;7.006;2024-01-15T11:07:59;10.15;;;5.85;;
14268;SDS011;7218;51.480;7.006;2024-01-15T11:10:44;6.88;;;5.22;;
14268;SDS011;7218;51.480;7.006;2024-01-15T11:13:19;7.50;;;4.20;;
14268;SDS011;7218;51.480;7.006;2024-01-15T11:15:56;7.93;;;4.75;;
14268;SDS011;7218;51.480;7.006;2024-01-15T11:18:23;6.25;;;4.45;;
14268;SDS011;7218;51.480;7.006;2024-01-15T11:23:48;14.48;;;4.57;;
14268;SDS011;7218;51.480;7.006;2024-01-15T11:26:32;6.82;;;4.70;;
14268;SDS011;7218;51.480;7.006;2024-01-15T11:29:02;8.75;;;4.70;;
14268;SDS011;7218;51.480;7.006;2024-01-15T11:37:18;5.82;;;3.83;;
14268;SDS011;7218;51.480;7.006;2024-01-15T11:39:45;4.43;;;3.83;;
14268;SDS011;7218;51.480;7.006;2024-01-15T11:42:13;8.23;;;4.20;;
14268;SDS011;7218;51.480;7.006;2024-01-15T11:44:43;5.60;;;4.20;;
14268;SDS011;7218;51.480;7.006;2024-01-15T11:47:10;4.85;;;4.32;;
14268;SDS011;7218;51.480;7.006;2024-01-15T11:52:28;8.35;;;4.93;;
14268;SDS011;7218;51.480;7.006;2024-01-15T11:55:00;6.13;;;5.18;;
14268;SDS011;7218;51.480;7.006;2024-01-15T11:57:32;11.77;;;6.05;;
14268;SDS011;7218;51.480;7.006;2024-01-15T12:00:05;8.60;;;5.57;;
14268;SDS011;7218;51.480;7.006;2024-01-15T12:02:33;6.15;;;4.75;;
14268;SDS011;7218;51.480;7.006;2024-01-15T12:04:59;10.50;;;6.15;;
14268;SDS011;7218;51.480;7.006;2024-01-15T12:07:26;18.48;;;10.73;;
14268;SDS011;7218;51.480;7.006;2024-01-15T12:09:52;7.88;;;5.00;;
14268;SDS011;7218;51.480;7.006;2024-01-15T12:12:21;8.23;;;6.22;;
14268;SDS011;7218;51.480;7.006;2024-01-15T12:14:55;6.97;;;4.38;;
14268;SDS011;7218;51.480;7.006;2024-01-15T12:17:24;5.78;;;4.88;;
14268;SDS011;7218;51.480;7.006;2024-01-15T12:19:50;8.68;;;5.93;;
14268;SDS011;7218;51.480;7.006;2024-01-15T12:22:17;10.95;;;5.65;;
14268;SDS011;7218;51.480;7.006;2024-01-15T12:24:44;9.80;;;5.47;;
14268;SDS011;7218;51.480;7.006;2024-01-15T12:27:11;9.55;;;4.82;;
14268;SDS011;7218;51.480;7.006;2024-01-15T12:29:37;5.72;;;4.03;;
14268;SDS011;7218;51.480;7.006;2024-01-15T12:32:04;5.82;;;3.40;;
14268;SDS011;7218;51.480;7.006;2024-01-15T12:34:33;13.05;;;6.18;;
14268;SDS011;7218;51.480;7.006;2024-01-15T12:37:00;11.95;;;6.30;;
14268;SDS011;7218;51.480;7.006;2024-01-15T12:39:26;12.32;;;5.05;;
14268;SDS011;7218;51.480;7.006;2024-01-15T12:41:53;5.57;;;3.33;;
14268;SDS011;7218;51.480;7.006;2024-01-15T12:44:19;6.45;;;3.58;;
14268;SDS011;7218;51.480;7.006;2024-01-15T12:46:46;8.85;;;3.90;;
14268;SDS011;7218;51.480;7.006;2024-01-15T12:49:12;9.65;;;4.10;;
14268;SDS011;7218;51.480;7.006;2024-01-15T12:51:40;15.45;;;8.77;;
14268;SDS011;7218;51.480;7.006;2024-01-15T12:54:07;9.30;;;5.40;;
14268;SDS011;7218;51.480;7.006;2024-01-15T12:56:33;6.10;;;3.83;;
14268;SDS011;7218;51.480;7.006;2024-01-15T12:59:00;7.47;;;2.92;;
14268;SDS011;7218;51.480;7.006;2024-01-15T13:01:26;9.90;;;2.85;;
14268;SDS011;7218;51.480;7.006;2024-01-15T13:03:53;6.47;;;3.00;;
14268;SDS011;7218;51.480;7.006;2024-01-15T13:06:19;5.50;;;3.03;;
14268;SDS011;7218;51.480;7.006;2024-01-15T13:08:47;9.07;;;3.28;;
14268;SDS011;7218;51.480;7.006;2024-01-15T13:11:14;6.07;;;3.47;;
14268;SDS011;7218;51.480;7.006;2024-01-15T13:13:40;7.28;;;3.60;;
14268;SDS011;7218;51.480;7.006;2024-01-15T13:16:07;8.07;;;4.22;;
14268;SDS011;7218;51.480;7.006;2024-01-15T13:18:34;10.48;;;5.18;;
14268;SDS011;7218;51.480;7.006;2024-01-15T13:21:01;6.95;;;4.45;;
14268;SDS011;7218;51.480;7.006;2024-01-15T13:23:29;8.02;;;4.00;;
14268;SDS011;7218;51.480;7.006;2024-01-15T13:25:57;9.77;;;5.60;;
14268;SDS011;7218;51.480;7.006;2024-01-15T13:28:24;8.02;;;4.32;;
14268;SDS011;7218;51.480;7.006;2024-01-15T13:30:50;9.20;;;4.35;;
14268;SDS011;7218;51.480;7.006;2024-01-15T13:33:17;13.52;;;5.97;;
14268;SDS011;7218;51.480;7.006;2024-01-15T13:35:44;10.80;;;5.47;;
14268;SDS011;7218;51.480;7.006;2024-01-15T13:38:14;10.75;;;5.95;;
14268;SDS011;7218;51.480;7.006;2024-01-15T13:40:41;9.95;;;4.57;;
14268;SDS011;7218;51.480;7.006;2024-01-15T13:43:11;8.57;;;4.15;;
14268;SDS011;7218;51.480;7.006;2024-01-15T13:45:39;8.88;;;3.75;;
14268;SDS011;7218;51.480;7.006;2024-01-15T13:48:06;8.63;;;3.85;;
14268;SDS011;7218;51.480;7.006;2024-01-15T13:50:33;12.48;;;4.57;;
14268;SDS011;7218;51.480;7.006;2024-01-15T13:52:59;5.47;;;3.78;;
14268;SDS011;7218;51.480;7.006;2024-01-15T13:55:26;7.53;;;4.05;;
14268;SDS011;7218;51.480;7.006;2024-01-15T13:57:53;7.25;;;4.40;;
14268;SDS011;7218;51.480;7.006;2024-01-15T14:00:21;9.77;;;5.70;;
14268;SDS011;7218;51.480;7.006;2024-01-15T14:02:48;9.27;;;5.80;;
14268;SDS011;7218;51.480;7.006;2024-01-15T14:05:14;6.80;;;4.32;;
14268;SDS011;7218;51.480;7.006;2024-01-15T14:07:41;7.93;;;4.10;;
14268;SDS011;7218;51.480;7.006;2024-01-15T14:10:09;5.97;;;3.85;;
14268;SDS011;7218;51.480;7.006;2024-01-15T14:12:36;5.95;;;3.70;;
14268;SDS011;7218;51.480;7.006;2024-01-15T14:15:03;7.30;;;3.58;;
14268;SDS011;7218;51.480;7.006;2024-01-15T14:17:32;6.03;;;3.70;;
14268;SDS011;7218;51.480;7.006;2024-01-15T14:19:58;4.28;;;3.72;;
14268;SDS011;7218;51.480;7.006;2024-01-15T14:22:25;7.70;;;4.22;;
14268;SDS011;7218;51.480;7.006;2024-01-15T14:24:51;8.77;;;5.25;;
14268;SDS011;7218;51.480;7.006;2024-01-15T14:27:19;6.75;;;4.60;;
14268;SDS011;7218;51.480;7.006;2024-01-15T14:29:46;8.23;;;4.78;;
14268;SDS011;7218;51.480;7.006;2024-01-15T14:32:13;8.18;;;4.43;;
14268;SDS011;7218;51.480;7.006;2024-01-15T14:34:40;7.60;;;4.50;;
14268;SDS011;7218;51.480;7.006;2024-01-15T14:37:08;9.50;;;5.20;;
14268;SDS011;7218;51.480;7.006;2024-01-15T14:39:34;9.32;;;4.65;;
14268;SDS011;7218;51.480;7.006;2024-01-15T14:42:01;9.55;;;5.20;;
14268;SDS011;7218;51.480;7.006;2024-01-15T14:44:28;9.65;;;5.78;;
14268;SDS011;7218;51.480;7.006;2024-01-15T14:46:54;8.40;;;4.78;;
14268;SDS011;7218;51.480;7.006;2024-01-15T14:49:23;7.15;;;3.78;;
14268;SDS011;7218;51.480;7.006;2024-01-15T14:51:51;8.90;;;4.50;;
14268;SDS011;7218;51.480;7.006;2024-01-15T14:54:17;14.40;;;6.20;;
14268;SDS011;7218;51.480;7.006;2024-01-15T14:56:44;15.00;;;7.72;;